createdAt,value
2023-04-22T00:00:09.429Z,8.20
2023-04-22T00:02:37.508Z,6.10
2023-04-22T00:05:08.158Z,7.75
2023-04-22T00:07:35.486Z,9.15
2023-04-22T00:10:02.945Z,7.30
2023-04-22T00:12:30.217Z,7.45
2023-04-22T00:14:57.555Z,5.78
2023-04-22T00:17:25.035Z,6.78
2023-04-22T00:19:53.075Z,6.47
2023-04-22T00:22:20.316Z,4.80
2023-04-22T00:24:47.482Z,5.25
2023-04-22T00:27:14.725Z,5.20
2023-04-22T00:29:41.983Z,7.40
2023-04-22T00:32:09.134Z,4.63
2023-04-22T00:34:36.487Z,7.32
2023-04-22T00:37:03.820Z,6.20
2023-04-22T00:39:31.297Z,5.53
2023-04-22T00:41:59.156Z,6.78
2023-04-22T00:44:27.376Z,5.88
2023-04-22T00:46:55.220Z,6.97
2023-04-22T00:49:23.326Z,7.85
2023-04-22T00:51:50.491Z,4.63
2023-04-22T00:54:17.799Z,9.55
2023-04-22T00:56:46.291Z,5.47
2023-04-22T00:59:13.506Z,6.40
2023-04-22T01:01:40.855Z,6.38
2023-04-22T01:04:10.950Z,4.43
2023-04-22T01:06:41.262Z,4.97
2023-04-22T01:09:08.751Z,5.63
2023-04-22T01:11:37.176Z,5.93
2023-04-22T01:14:04.837Z,6.57
2023-04-22T01:16:35.957Z,8.73
2023-04-22T01:19:03.464Z,5.53
2023-04-22T01:21:33.725Z,8.25
2023-04-22T01:24:02.020Z,5.03
2023-04-22T01:26:29.701Z,7.45
2023-04-22T01:28:57.109Z,4.78
2023-04-22T01:31:24.892Z,5.75
2023-04-22T01:33:52.670Z,5.55
2023-04-22T01:36:19.945Z,6.38
2023-04-22T01:38:48.182Z,7.68
2023-04-22T01:41:15.588Z,6.15
2023-04-22T01:43:44.283Z,5.30
2023-04-22T01:46:12.003Z,9.57
2023-04-22T01:48:40.316Z,4.93
2023-04-22T01:51:07.780Z,5.55
2023-04-22T01:53:36.367Z,7.30
2023-04-22T01:56:03.856Z,5.68
2023-04-22T01:58:33.421Z,7.47
2023-04-22T02:01:00.792Z,9.30
2023-04-22T02:03:28.080Z,5.40
2023-04-22T02:05:56.336Z,4.93
2023-04-22T02:08:23.532Z,6.53
2023-04-22T02:10:50.937Z,4.80
2023-04-22T02:13:18.272Z,5.47
2023-04-22T02:15:45.556Z,3.50
2023-04-22T02:18:13.224Z,5.18
2023-04-22T02:20:42.294Z,5.15
2023-04-22T02:23:09.685Z,6.65
2023-04-22T02:25:38.442Z,5.10
2023-04-22T02:28:05.726Z,7.47
2023-04-22T02:30:32.946Z,4.88
2023-04-22T02:33:00.190Z,4.88
2023-04-22T02:35:27.447Z,4.32
2023-04-22T02:37:55.186Z,4.07
2023-04-22T02:40:25.614Z,4.15
2023-04-22T02:42:52.881Z,4.03
2023-04-22T02:45:21.850Z,3.78
2023-04-22T02:47:49.190Z,5.78
2023-04-22T02:50:16.738Z,3.92
2023-04-22T02:52:43.863Z,6.93
2023-04-22T02:55:11.137Z,4.70
2023-04-22T02:57:38.390Z,6.05
2023-04-22T03:00:06.244Z,4.75
2023-04-22T03:02:33.600Z,5.57
2023-04-22T03:05:10.899Z,4.40
2023-04-22T03:07:38.141Z,6.13
2023-04-22T03:10:05.927Z,6.90
2023-04-22T03:12:34.179Z,5.85
2023-04-22T03:15:02.743Z,6.78
2023-04-22T03:17:32.077Z,5.07
2023-04-22T03:20:01.689Z,4.78
2023-04-22T03:22:29.888Z,4.72
2023-04-22T03:24:59.186Z,5.85
2023-04-22T03:27:28.633Z,6.32
2023-04-22T03:29:56.006Z,5.65
2023-04-22T03:32:23.304Z,5.70
2023-04-22T03:35:00.451Z,6.22
2023-04-22T03:37:28.494Z,5.10
2023-04-22T03:39:56.614Z,9.45
2023-04-22T03:42:23.925Z,4.13
2023-04-22T03:44:52.471Z,4.72
2023-04-22T03:47:24.126Z,4.63
2023-04-22T03:49:57.200Z,5.35
2023-04-22T03:52:24.419Z,9.40
2023-04-22T03:54:58.150Z,5.13
2023-04-22T03:57:25.441Z,4.32
2023-04-22T03:59:52.614Z,6.47
2023-04-22T04:02:20.580Z,6.35
2023-04-22T04:04:48.085Z,4.15
2023-04-22T04:07:16.319Z,4.50
2023-04-22T04:09:43.448Z,7.03
2023-04-22T04:12:11.698Z,6.75
2023-04-22T04:14:43.251Z,6.22
2023-04-22T04:17:14.218Z,7.65
2023-04-22T04:19:42.253Z,5.03
2023-04-22T04:22:10.749Z,6.95
2023-04-22T04:24:47.444Z,5.50
2023-04-22T04:27:19.948Z,4.88
2023-04-22T04:29:52.873Z,5.63
2023-04-22T04:32:35.899Z,5.80
2023-04-22T04:35:07.757Z,4.45
2023-04-22T04:37:35.114Z,3.88
2023-04-22T04:40:08.001Z,5.32
2023-04-22T04:43:02.769Z,9.13
2023-04-22T04:45:39.312Z,8.77
2023-04-22T04:50:38.084Z,3.85
2023-04-22T04:53:07.308Z,6.03
2023-04-22T04:55:39.099Z,3.58
2023-04-22T04:58:12.983Z,4.57
2023-04-22T05:00:40.456Z,5.80
2023-04-22T05:03:08.614Z,6.65
2023-04-22T05:05:36.240Z,7.28
2023-04-22T05:08:03.524Z,4.15
2023-04-22T05:10:31.705Z,4.65
2023-04-22T05:12:59.556Z,4.75
2023-04-22T05:15:27.604Z,4.95
2023-04-22T05:17:54.919Z,5.03
2023-04-22T05:20:22.213Z,6.55
2023-04-22T05:22:49.833Z,5.07
2023-04-22T05:25:17.535Z,8.25
2023-04-22T05:27:54.391Z,9.20
2023-04-22T05:30:23.055Z,10.75
2023-04-22T05:32:50.509Z,10.93
2023-04-22T05:35:17.690Z,6.47
2023-04-22T05:37:45.067Z,5.85
2023-04-22T05:40:12.648Z,6.93
2023-04-22T05:42:40.297Z,6.78
2023-04-22T05:45:08.320Z,10.02
2023-04-22T05:47:37.900Z,11.38
2023-04-22T05:50:06.388Z,8.80
2023-04-22T05:52:39.867Z,10.57
2023-04-22T05:55:14.369Z,8.52
2023-04-22T05:57:41.606Z,6.93
2023-04-22T06:00:20.066Z,10.77
2023-04-22T06:03:00.590Z,7.00
2023-04-22T06:05:28.845Z,10.57
2023-04-22T06:07:57.793Z,8.10
2023-04-22T06:10:25.141Z,7.93
2023-04-22T06:12:52.317Z,8.45
2023-04-22T06:15:19.865Z,7.88
2023-04-22T06:17:50.003Z,9.43
2023-04-22T06:20:17.581Z,8.52
2023-04-22T06:22:45.047Z,10.50
2023-04-22T06:25:12.285Z,9.00
2023-04-22T06:27:39.863Z,9.10
2023-04-22T06:30:10.056Z,7.13
2023-04-22T06:32:38.697Z,7.43
2023-04-22T06:35:06.231Z,7.90
2023-04-22T06:37:33.446Z,7.57
2023-04-22T06:40:01.074Z,6.93
2023-04-22T06:42:46.584Z,7.47
2023-04-22T06:45:36.698Z,10.10
2023-04-22T06:48:17.228Z,9.30
2023-04-22T06:51:04.242Z,8.38
2023-04-22T06:53:31.585Z,8.18
2023-04-22T06:55:58.658Z,8.27
2023-04-22T06:58:25.926Z,7.78
2023-04-22T07:00:53.777Z,7.47
2023-04-22T07:03:21.046Z,10.95
2023-04-22T07:05:58.615Z,7.20
2023-04-22T07:08:25.797Z,8.93
2023-04-22T07:10:52.944Z,6.40
2023-04-22T07:13:34.139Z,12.73
2023-04-22T07:16:01.535Z,11.25
2023-04-22T07:18:29.848Z,7.90
2023-04-22T07:20:57.050Z,7.43
2023-04-22T07:23:24.026Z,9.82
2023-04-22T07:25:51.106Z,8.25
2023-04-22T07:28:18.184Z,10.52
2023-04-22T07:30:46.161Z,7.07
2023-04-22T07:33:13.159Z,8.38
2023-04-22T07:35:40.352Z,6.32
2023-04-22T07:38:08.820Z,7.93
2023-04-22T07:40:36.715Z,4.57
2023-04-22T07:43:07.358Z,6.22
2023-04-22T07:45:34.696Z,6.63
2023-04-22T07:48:01.952Z,5.57
2023-04-22T07:50:29.357Z,8.13
2023-04-22T07:52:56.509Z,5.78
2023-04-22T07:55:23.574Z,7.35
2023-04-22T07:57:50.561Z,8.43
2023-04-22T08:00:17.626Z,5.35
2023-04-22T08:02:44.784Z,7.30
2023-04-22T08:05:11.983Z,4.45
2023-04-22T08:07:39.123Z,6.25
2023-04-22T08:10:07.112Z,4.07
2023-04-22T08:12:35.162Z,4.05
2023-04-22T08:15:02.344Z,4.68
2023-04-22T08:17:29.434Z,3.90
2023-04-22T08:19:56.610Z,5.95
2023-04-22T08:22:24.103Z,5.70
2023-04-22T08:24:51.130Z,5.05
2023-04-22T08:27:19.377Z,5.72
2023-04-22T08:29:46.531Z,6.18
2023-04-22T08:32:13.545Z,5.70
2023-04-22T08:34:40.929Z,5.95
2023-04-22T08:37:08.706Z,5.20
2023-04-22T08:39:35.793Z,7.45
2023-04-22T08:42:03.033Z,4.70
2023-04-22T08:44:30.484Z,4.30
2023-04-22T08:46:59.530Z,5.25
2023-04-22T08:49:30.296Z,5.25
2023-04-22T08:51:57.378Z,4.43
2023-04-22T08:54:24.720Z,5.38
2023-04-22T08:56:52.498Z,6.80
2023-04-22T08:59:20.852Z,5.32
2023-04-22T09:01:52.738Z,4.95
2023-04-22T09:04:20.081Z,4.35
2023-04-22T09:06:47.358Z,4.93
2023-04-22T09:09:14.812Z,6.72
2023-04-22T09:11:42.352Z,4.50
2023-04-22T09:14:09.367Z,4.43
2023-04-22T09:16:44.858Z,3.67
2023-04-22T09:19:13.254Z,4.13
2023-04-22T09:21:41.536Z,4.18
2023-04-22T09:24:10.660Z,4.97
2023-04-22T09:26:42.431Z,4.28
2023-04-22T09:29:14.653Z,3.70
2023-04-22T09:31:42.130Z,3.05
2023-04-22T09:34:09.665Z,6.07
2023-04-22T09:36:39.541Z,5.00
2023-04-22T09:39:08.377Z,3.33
2023-04-22T09:41:38.903Z,2.70
2023-04-22T09:44:16.819Z,3.15
2023-04-22T09:46:45.001Z,3.05
2023-04-22T09:49:12.377Z,9.55
2023-04-22T09:51:44.698Z,4.72
2023-04-22T09:54:12.202Z,3.58
2023-04-22T09:56:49.487Z,3.05
2023-04-22T09:59:24.295Z,4.38
2023-04-22T10:01:53.223Z,3.15
2023-04-22T10:04:25.389Z,4.75
2023-04-22T10:06:53.758Z,5.68
2023-04-22T10:09:23.110Z,5.93
2023-04-22T10:11:52.694Z,4.35
2023-04-22T10:14:21.573Z,6.47
2023-04-22T10:16:50.553Z,4.60
2023-04-22T10:19:24.305Z,3.22
2023-04-22T10:21:59.504Z,3.33
2023-04-22T10:24:28.653Z,4.38
2023-04-22T10:26:57.244Z,3.75
2023-04-22T10:29:25.959Z,3.92
2023-04-22T10:32:05.891Z,3.72
2023-04-22T10:34:33.419Z,5.70
2023-04-22T10:37:06.605Z,4.35
2023-04-22T10:39:34.112Z,2.80
2023-04-22T10:42:05.574Z,5.00
2023-04-22T10:44:52.528Z,4.60
2023-04-22T10:47:37.803Z,3.30
2023-04-22T10:50:22.204Z,3.38
2023-04-22T10:52:51.724Z,3.15
2023-04-22T10:55:19.736Z,3.28
2023-04-22T10:57:48.728Z,4.53
2023-04-22T11:00:23.368Z,3.67
2023-04-22T11:03:05.897Z,3.10
2023-04-22T11:05:35.684Z,3.75
2023-04-22T11:08:28.439Z,4.50
2023-04-22T11:11:08.963Z,3.72
2023-04-22T11:13:36.323Z,5.93
2023-04-22T11:16:04.143Z,3.05
2023-04-22T11:18:32.674Z,3.35
2023-04-22T11:21:06.550Z,2.85
2023-04-22T11:23:33.609Z,3.03
2023-04-22T11:26:03.792Z,3.47
2023-04-22T11:28:31.502Z,3.28
2023-04-22T11:31:03.352Z,2.75
2023-04-22T11:33:31.883Z,6.22
2023-04-22T11:35:58.955Z,4.22
2023-04-22T11:38:25.954Z,3.42
2023-04-22T11:40:55.503Z,6.63
2023-04-22T11:43:22.451Z,3.03
2023-04-22T11:45:49.732Z,3.22
2023-04-22T12:59:03.929Z,2.47
2023-04-22T13:01:33.234Z,2.95
2023-04-22T13:04:01.121Z,3.28
2023-04-22T13:06:29.139Z,3.95
2023-04-22T13:08:56.172Z,5.05
2023-04-22T13:11:24.678Z,3.10
2023-04-22T13:13:51.896Z,3.08
2023-04-22T13:16:19.019Z,2.80
2023-04-22T13:18:46.056Z,4.63
2023-04-22T13:21:14.790Z,2.92
2023-04-22T13:23:42.063Z,3.88
2023-04-22T13:26:09.101Z,4.80
2023-04-22T13:28:36.474Z,2.65
2023-04-22T13:31:03.655Z,3.67
2023-04-22T13:33:30.860Z,2.78
2023-04-22T13:35:57.935Z,2.33
2023-04-22T13:38:25.368Z,3.60
2023-04-22T13:40:52.386Z,4.00
2023-04-22T13:43:19.377Z,6.03
2023-04-22T13:45:48.370Z,3.53
2023-04-22T13:48:16.184Z,4.22
2023-04-22T13:50:43.904Z,4.28
2023-04-22T13:53:12.490Z,3.28
2023-04-22T13:55:40.083Z,3.58
2023-04-22T13:58:07.751Z,4.25
2023-04-22T14:00:35.228Z,4.05
2023-04-22T14:03:02.581Z,4.53
2023-04-22T14:05:29.745Z,6.18
2023-04-22T14:07:57.017Z,3.67
2023-04-22T14:10:24.503Z,2.92
2023-04-22T14:12:52.606Z,3.72
2023-04-22T14:15:19.529Z,3.60
2023-04-22T14:17:49.419Z,5.60
2023-04-22T14:20:17.040Z,4.80
2023-04-22T14:22:44.027Z,3.03
2023-04-22T14:25:11.083Z,2.65
2023-04-22T14:27:38.207Z,4.78
2023-04-22T14:30:06.866Z,3.17
2023-04-22T14:32:34.253Z,2.95
2023-04-22T14:35:01.406Z,4.13
2023-04-22T14:37:28.506Z,2.72
2023-04-22T14:39:55.520Z,2.92
2023-04-22T14:42:22.538Z,5.15
2023-04-22T14:44:49.862Z,2.80
2023-04-22T14:47:16.861Z,5.85
2023-04-22T14:49:44.156Z,5.85
2023-04-22T14:52:11.432Z,5.88
2023-04-22T14:54:38.421Z,2.83
2023-04-22T14:57:05.454Z,7.20
2023-04-22T14:59:32.396Z,5.47
2023-04-22T15:01:59.559Z,2.60
2023-04-22T15:04:26.852Z,5.18
2023-04-22T15:06:57.721Z,5.80
2023-04-22T15:09:24.786Z,6.05
2023-04-22T15:11:54.230Z,2.92
2023-04-22T15:14:21.498Z,4.22
2023-04-22T15:16:48.551Z,4.22
2023-04-22T15:19:15.953Z,2.58
2023-04-22T15:21:43.123Z,3.33
2023-04-22T15:24:10.128Z,4.28
2023-04-22T15:26:37.358Z,2.35
2023-04-22T15:29:04.300Z,4.82
2023-04-22T15:31:31.310Z,4.22
2023-04-22T15:33:58.299Z,3.67
2023-04-22T15:36:25.368Z,3.72
2023-04-22T15:38:57.632Z,5.30
2023-04-22T15:41:25.389Z,3.10
2023-04-22T15:43:53.234Z,5.50
2023-04-22T15:46:20.740Z,4.78
2023-04-22T15:48:48.655Z,4.47
2023-04-22T15:51:16.835Z,3.95
2023-04-22T15:53:47.008Z,2.38
2023-04-22T15:56:15.417Z,4.93
2023-04-22T15:58:42.560Z,4.93
2023-04-22T16:01:19.028Z,2.58
2023-04-22T16:03:48.407Z,2.75
2023-04-22T16:06:16.628Z,3.78
2023-04-22T16:08:45.597Z,7.53
2023-04-22T16:11:14.987Z,3.97
2023-04-22T16:13:42.429Z,2.08
2023-04-22T16:16:10.067Z,3.88
2023-04-22T16:18:38.106Z,2.53
2023-04-22T16:21:05.315Z,5.13
2023-04-22T16:23:34.576Z,2.03
2023-04-22T16:26:02.909Z,8.85
2023-04-22T16:28:30.323Z,3.33
2023-04-22T16:30:57.632Z,3.30
2023-04-22T16:33:25.980Z,4.32
2023-04-22T16:35:53.165Z,3.42
2023-04-22T16:38:20.372Z,6.32
2023-04-22T16:40:47.598Z,4.80
2023-04-22T16:43:14.700Z,3.72
2023-04-22T16:45:41.893Z,3.72
2023-04-22T16:48:08.884Z,3.95
2023-04-22T16:50:35.889Z,3.45
2023-04-22T16:53:02.895Z,3.88
2023-04-22T16:55:29.903Z,5.53
2023-04-22T16:57:58.704Z,3.38
2023-04-22T17:00:25.997Z,4.47
2023-04-22T17:02:53.197Z,7.20
2023-04-22T17:05:20.386Z,3.72
2023-04-22T17:07:47.410Z,7.10
2023-04-22T17:10:14.422Z,3.30
2023-04-22T17:12:41.579Z,10.82
2023-04-22T17:15:08.992Z,6.78
2023-04-22T17:17:36.104Z,4.50
2023-04-22T17:20:03.505Z,9.02
2023-04-22T17:22:30.708Z,5.18
2023-04-22T17:24:59.065Z,4.97
2023-04-22T17:27:26.922Z,4.40
2023-04-22T17:29:53.966Z,4.13
2023-04-22T17:32:20.967Z,5.47
2023-04-22T17:34:48.236Z,5.63
2023-04-22T17:37:15.495Z,2.95
2023-04-22T17:39:42.825Z,5.88
2023-04-22T17:42:09.879Z,4.30
2023-04-22T17:44:36.900Z,6.57
2023-04-22T17:47:05.284Z,8.48
2023-04-22T17:49:34.233Z,7.18
2023-04-22T17:52:01.622Z,2.90
2023-04-22T17:54:28.618Z,5.20
2023-04-22T17:56:55.893Z,6.40
2023-04-22T17:59:22.826Z,3.88
2023-04-22T18:01:50.000Z,6.15
2023-04-22T18:04:17.232Z,5.70
2023-04-22T18:06:44.752Z,4.78
2023-04-22T18:09:11.935Z,5.00
2023-04-22T18:11:39.441Z,3.97
2023-04-22T18:14:08.038Z,7.43
2023-04-22T18:16:35.187Z,6.88
2023-04-22T18:19:04.138Z,5.88
2023-04-22T18:21:31.760Z,5.43
2023-04-22T18:23:59.019Z,6.05
2023-04-22T18:26:26.585Z,6.20
2023-04-22T18:28:54.086Z,2.80
2023-04-22T18:31:21.711Z,5.65
2023-04-22T18:33:49.152Z,6.05
2023-04-22T18:36:16.403Z,3.00
2023-04-22T18:38:43.675Z,3.97
2023-04-22T18:41:13.130Z,5.45
2023-04-22T18:43:40.527Z,7.32
2023-04-22T18:46:08.389Z,4.22
2023-04-22T18:48:35.702Z,8.82
2023-04-22T18:51:03.238Z,5.70
2023-04-22T18:53:31.004Z,4.50
2023-04-22T18:55:58.368Z,8.18
2023-04-22T18:58:25.912Z,5.35
2023-04-22T19:00:53.360Z,9.20
2023-04-22T19:03:21.059Z,9.23
2023-04-22T19:05:48.397Z,9.50
2023-04-22T19:08:15.644Z,8.77
2023-04-22T19:10:43.234Z,7.22
2023-04-22T19:13:22.314Z,5.57
2023-04-22T19:15:56.283Z,7.22
2023-04-22T19:18:23.618Z,5.78
2023-04-22T19:20:51.154Z,11.05
2023-04-22T19:23:18.802Z,5.72
2023-04-22T19:25:46.048Z,7.97
2023-04-22T19:28:13.225Z,6.80
2023-04-22T19:30:40.628Z,16.92
2023-04-22T19:33:08.051Z,73.55
2023-04-22T19:35:35.053Z,40.58
2023-04-22T19:38:02.611Z,23.92
2023-04-22T19:40:29.834Z,15.45
2023-04-22T19:42:59.090Z,11.65
2023-04-22T19:45:27.110Z,9.65
2023-04-22T19:47:54.757Z,9.38
2023-04-22T19:50:24.014Z,8.70
2023-04-22T19:52:57.782Z,7.38
2023-04-22T19:55:26.580Z,7.60
2023-04-22T19:57:55.032Z,7.78
2023-04-22T20:00:22.436Z,9.00
2023-04-22T20:02:50.900Z,7.63
2023-04-22T20:05:19.667Z,5.55
2023-04-22T20:07:49.358Z,7.63
2023-04-22T20:10:16.885Z,5.50
2023-04-22T20:12:46.260Z,9.00
2023-04-22T20:15:14.857Z,10.52
2023-04-22T20:17:42.180Z,9.85
2023-04-22T20:20:15.392Z,7.85
2023-04-22T20:22:43.869Z,8.45
2023-04-22T20:25:17.381Z,6.93
2023-04-22T20:27:45.293Z,11.60
2023-04-22T20:30:13.693Z,7.07
2023-04-22T20:32:41.774Z,10.75
2023-04-22T20:35:15.173Z,10.23
2023-04-22T20:37:44.552Z,9.82
2023-04-22T20:40:14.915Z,9.20
2023-04-22T20:42:42.143Z,8.75
2023-04-22T20:45:15.022Z,10.88
2023-04-22T20:47:42.879Z,7.50
2023-04-22T20:50:10.784Z,9.90
2023-04-22T20:52:39.215Z,7.15
2023-04-22T20:55:06.826Z,8.60
2023-04-22T20:57:33.960Z,6.28
2023-04-22T21:00:01.509Z,10.90
2023-04-22T21:02:31.586Z,8.65
2023-04-22T21:05:00.532Z,10.00
2023-04-22T21:07:30.748Z,8.05
2023-04-22T21:09:58.488Z,6.10
2023-04-22T21:12:25.900Z,6.60
2023-04-22T21:14:53.379Z,7.05
2023-04-22T21:17:29.761Z,7.15
2023-04-22T21:19:58.409Z,11.07
2023-04-22T21:22:25.700Z,6.57
2023-04-22T21:24:53.939Z,7.70
2023-04-22T21:27:22.594Z,5.80
2023-04-22T21:29:50.415Z,8.35
2023-04-22T21:32:19.138Z,6.53
2023-04-22T21:34:46.818Z,4.68
2023-04-22T21:37:14.526Z,6.05
2023-04-22T21:39:42.210Z,5.38
2023-04-22T21:42:09.385Z,5.22
2023-04-22T21:44:37.750Z,5.10
2023-04-22T21:47:06.596Z,9.32
2023-04-22T21:49:34.277Z,8.05
2023-04-22T21:52:01.777Z,5.30
2023-04-22T21:54:29.552Z,8.20
2023-04-22T21:56:57.758Z,7.38
2023-04-22T21:59:25.069Z,7.32
2023-04-22T22:01:52.481Z,8.00
2023-04-22T22:04:20.169Z,10.18
2023-04-22T22:06:47.659Z,8.38
2023-04-22T22:09:15.602Z,11.70
2023-04-22T22:11:43.211Z,7.78
2023-04-22T22:14:10.777Z,6.65
2023-04-22T22:16:40.007Z,5.72
2023-04-22T22:19:07.503Z,7.18
2023-04-22T22:21:34.717Z,11.45
2023-04-22T22:24:01.732Z,10.13
2023-04-22T22:26:29.412Z,10.60
2023-04-22T22:28:56.836Z,7.00
2023-04-22T22:31:24.022Z,8.00
2023-04-22T22:33:51.297Z,9.05
2023-04-22T22:36:19.440Z,8.73
2023-04-22T22:38:46.614Z,8.63
2023-04-22T22:41:14.177Z,8.63
2023-04-22T22:43:41.166Z,5.93
2023-04-22T22:46:08.296Z,7.60
2023-04-22T22:48:35.408Z,8.63
2023-04-22T22:51:02.388Z,7.30
2023-04-22T22:53:29.351Z,6.40
2023-04-22T22:55:56.311Z,5.97
2023-04-22T22:58:23.365Z,8.52
2023-04-22T23:00:50.460Z,8.23
2023-04-22T23:03:19.655Z,6.65
2023-04-22T23:05:47.175Z,12.05
2023-04-22T23:08:14.794Z,6.80
2023-04-22T23:10:41.927Z,6.47
2023-04-22T23:13:09.105Z,5.88
2023-04-22T23:15:36.625Z,7.45
2023-04-22T23:18:03.841Z,9.90
2023-04-22T23:20:31.272Z,8.00
2023-04-22T23:22:59.947Z,9.20
2023-04-22T23:25:27.224Z,6.07
2023-04-22T23:27:54.358Z,6.82
2023-04-22T23:30:22.375Z,4.97
2023-04-22T23:32:52.127Z,8.40
2023-04-22T23:35:20.486Z,9.80
2023-04-22T23:37:50.810Z,7.25
2023-04-22T23:40:17.908Z,6.32
2023-04-22T23:42:44.918Z,7.07
2023-04-22T23:45:12.095Z,6.50
2023-04-22T23:47:39.143Z,8.50
2023-04-22T23:50:06.673Z,8.15
2023-04-22T23:52:37.476Z,6.65
2023-04-22T23:55:05.053Z,5.60
2023-04-22T23:57:32.302Z,6.53
2023-04-22T23:59:59.628Z,7.85
